Time;durP1;ratioP1;P1;durP2;ratioP2;P2;SDS_P1;SDS_P2;PMS_P1;PMS_P2;Temp;Humidity;BMP_temperature;BMP_pressure;BME280_temperature;BME280_humidity;BME280_pressure;Samples;Min_cycle;Max_cycle;Signal;HPM_P1;HPM_P2
2022/01/06 00:02:05;;;;;;;11.88;2.50;;;3.50;99.90;;;;;;4982184;28;20099;-85
2022/01/06 00:04:31;;;;;;;11.27;2.47;;;3.60;99.90;;;;;;5001141;28;20072;-87
2022/01/06 00:06:57;;;;;;;10.77;1.90;;;3.70;99.90;;;;;;4992449;28;20056;-86
2022/01/06 00:09:23;;;;;;;14.50;2.47;;;3.80;99.90;;;;;;4992613;28;20045;-85
2022/01/06 00:11:49;;;;;;;15.15;2.53;;;3.80;99.90;;;;;;5015204;28;20091;-85
2022/01/06 00:14:23;;;;;;;10.32;2.45;;;3.80;99.90;;;;;;5015111;28;20041;-85
2022/01/06 00:24:48;;;;;;;13.05;2.55;;;3.70;99.90;;;;;;5048583;28;20080;-87
2022/01/06 00:27:14;;;;;;;14.65;3.28;;;3.70;99.90;;;;;;5015582;28;20053;-86
2022/01/06 00:29:41;;;;;;;18.70;3.20;;;3.80;99.90;;;;;;5032374;28;20052;-86
2022/01/06 00:32:11;;;;;;;17.52;3.33;;;3.80;99.90;;;;;;5004810;28;20045;-85
2022/01/06 00:34:37;;;;;;;26.45;4.10;;;3.90;99.90;;;;;;5002429;28;20068;-85
2022/01/06 00:37:04;;;;;;;17.67;4.07;;;3.90;99.90;;;;;;5003875;28;20045;-86
2022/01/06 00:39:30;;;;;;;19.17;3.03;;;3.90;99.90;;;;;;5007440;28;20047;-86
2022/01/06 00:41:59;;;;;;;27.17;3.90;;;3.80;99.90;;;;;;5015282;28;20060;-86
2022/01/06 00:44:25;;;;;;;14.20;2.92;;;3.80;99.90;;;;;;5000692;28;20484;-86
2022/01/06 00:46:52;;;;;;;18.65;3.17;;;3.70;99.90;;;;;;4991429;28;20044;-86
2022/01/06 00:49:22;;;;;;;24.15;3.33;;;3.60;99.90;;;;;;4995132;28;20044;-86
2022/01/06 00:51:48;;;;;;;27.60;3.72;;;3.50;99.90;;;;;;5000907;28;20049;-84
2022/01/06 00:54:15;;;;;;;18.00;2.97;;;3.50;99.90;;;;;;5015737;28;20041;-86
2022/01/06 00:56:42;;;;;;;18.70;3.58;;;3.40;99.90;;;;;;5001447;28;20043;-85
2022/01/06 00:59:08;;;;;;;22.45;3.72;;;3.30;99.90;;;;;;4974948;28;20106;-86
2022/01/06 01:01:34;;;;;;;21.25;3.65;;;3.30;99.90;;;;;;5048248;28;20085;-86
2022/01/06 01:04:00;;;;;;;15.23;2.67;;;3.40;99.90;;;;;;4992341;28;20055;-86
2022/01/06 01:06:26;;;;;;;18.70;3.70;;;3.30;99.90;;;;;;5030477;28;20499;-86
2022/01/06 01:08:52;;;;;;;17.58;3.85;;;3.20;99.90;;;;;;4990379;28;20048;-85
2022/01/06 01:11:18;;;;;;;19.75;3.78;;;3.20;99.90;;;;;;4997720;28;20083;-86
2022/01/06 01:13:56;;;;;;;16.63;2.88;;;3.20;99.90;;;;;;5015015;28;20326;-86
2022/01/06 01:16:28;;;;;;;16.73;4.00;;;3.20;99.90;;;;;;5004465;28;20041;-86
2022/01/06 01:18:57;;;;;;;20.35;3.63;;;3.20;99.90;;;;;;5031976;28;20105;-86
2022/01/06 01:21:28;;;;;;;16.42;3.47;;;3.20;99.90;;;;;;5046694;28;20102;-86
2022/01/06 01:23:55;;;;;;;13.20;3.60;;;3.20;99.90;;;;;;5045219;28;20079;-86
2022/01/06 01:26:22;;;;;;;19.75;3.80;;;3.10;99.90;;;;;;5031281;28;20072;-85
2022/01/06 01:28:50;;;;;;;23.35;3.70;;;3.10;99.90;;;;;;5043698;28;20163;-86
2022/01/06 01:33:45;;;;;;;19.35;3.45;;;3.10;99.90;;;;;;5027986;28;20052;-87
2022/01/06 01:36:12;;;;;;;18.48;4.15;;;3.00;99.90;;;;;;5017401;28;20041;-86
2022/01/06 01:38:39;;;;;;;25.02;4.10;;;3.00;99.90;;;;;;5031567;28;20040;-86
2022/01/06 01:41:06;;;;;;;24.80;4.47;;;3.00;99.90;;;;;;4987457;28;20055;-86
2022/01/06 01:43:33;;;;;;;21.27;4.05;;;2.90;99.90;;;;;;4983834;28;20056;-86
2022/01/06 01:46:09;;;;;;;18.50;3.35;;;2.90;99.90;;;;;;5005349;28;20053;-86
2022/01/06 01:48:38;;;;;;;21.95;3.40;;;2.80;99.90;;;;;;5028021;28;20505;-86
2022/01/06 01:51:04;;;;;;;23.88;4.03;;;2.80;99.90;;;;;;5014379;28;20045;-86
2022/01/06 01:53:30;;;;;;;27.15;5.03;;;2.80;99.90;;;;;;4997074;28;20441;-86
2022/01/06 01:55:57;;;;;;;20.88;3.22;;;2.80;99.90;;;;;;5014035;28;20048;-86
2022/01/06 01:58:23;;;;;;;14.60;3.22;;;2.80;99.90;;;;;;5020220;28;20517;-87
2022/01/06 02:00:49;;;;;;;22.83;4.25;;;2.80;99.90;;;;;;5008714;28;20044;-86
2022/01/06 02:03:15;;;;;;;18.98;4.13;;;2.80;99.90;;;;;;5007328;28;20048;-86
2022/01/06 02:05:41;;;;;;;33.45;4.82;;;2.80;99.90;;;;;;5011042;28;20055;-86
2022/01/06 02:08:09;;;;;;;23.08;4.55;;;2.80;99.90;;;;;;5014934;28;20579;-86
2022/01/06 02:10:36;;;;;;;27.05;5.30;;;2.80;99.90;;;;;;5048534;28;20045;-87
2022/01/06 02:13:03;;;;;;;24.08;4.40;;;2.80;99.90;;;;;;5001993;28;20103;-86
2022/01/06 02:15:29;;;;;;;22.30;4.95;;;2.90;99.90;;;;;;5002524;28;20077;-85
2022/01/06 02:17:56;;;;;;;21.80;4.20;;;3.00;99.90;;;;;;5013582;28;20045;-86
2022/01/06 02:20:22;;;;;;;20.05;4.82;;;3.00;99.90;;;;;;4997357;28;20464;-87
2022/01/06 02:22:50;;;;;;;19.00;3.90;;;3.00;99.90;;;;;;5014818;28;20041;-86
2022/01/06 02:25:26;;;;;;;24.27;4.57;;;3.00;99.90;;;;;;4982324;28;20048;-86
2022/01/06 02:27:54;;;;;;;29.00;4.60;;;2.90;99.90;;;;;;4994206;28;20532;-87
2022/01/06 02:30:22;;;;;;;25.52;4.18;;;2.90;99.90;;;;;;5025540;28;20480;-86
2022/01/06 02:32:49;;;;;;;25.92;4.93;;;2.80;99.90;;;;;;5022820;28;20101;-87
2022/01/06 02:35:24;;;;;;;24.85;3.78;;;2.70;99.90;;;;;;4990308;28;20048;-87
2022/01/06 02:37:52;;;;;;;22.38;4.47;;;2.70;99.90;;;;;;5026247;28;20053;-86
2022/01/06 02:40:23;;;;;;;13.68;4.07;;;2.70;99.90;;;;;;4999733;28;20073;-86
2022/01/06 02:42:52;;;;;;;20.17;4.47;;;2.60;99.90;;;;;;5040757;28;20041;-87
2022/01/06 02:45:20;;;;;;;25.27;4.90;;;2.60;99.90;;;;;;5044757;28;20579;-87
2022/01/06 02:47:47;;;;;;;19.70;3.50;;;2.60;99.90;;;;;;5002218;28;20526;-86
2022/01/06 02:50:15;;;;;;;22.52;4.45;;;2.50;99.90;;;;;;4998097;28;20040;-86
2022/01/06 02:52:41;;;;;;;23.00;4.00;;;2.50;99.90;;;;;;5014201;28;20041;-86
2022/01/06 02:55:12;;;;;;;17.63;3.75;;;2.40;99.90;;;;;;5010378;28;20041;-87
2022/01/06 02:57:39;;;;;;;21.70;4.00;;;2.40;99.90;;;;;;5004596;28;20056;-86
2022/01/06 03:00:07;;;;;;;27.98;4.15;;;2.40;99.90;;;;;;5024544;28;20068;-85
2022/01/06 03:02:34;;;;;;;27.00;4.57;;;2.40;99.90;;;;;;5001666;28;20562;-87
2022/01/06 03:05:00;;;;;;;21.30;3.58;;;2.40;99.90;;;;;;5020095;28;20140;-86
2022/01/06 03:07:26;;;;;;;26.60;4.25;;;2.40;99.90;;;;;;4994819;28;20049;-86
2022/01/06 03:09:55;;;;;;;24.38;4.30;;;2.40;99.90;;;;;;5000980;28;20040;-86
2022/01/06 03:12:34;;;;;;;17.60;3.67;;;2.40;99.90;;;;;;5014891;28;20063;-86
2022/01/06 03:15:01;;;;;;;35.47;5.40;;;2.40;99.90;;;;;;5035243;28;20059;-86
2022/01/06 03:17:27;;;;;;;23.85;3.78;;;2.30;99.90;;;;;;5017628;28;20040;-86
2022/01/06 03:19:53;;;;;;;16.15;3.78;;;2.30;99.90;;;;;;5002589;28;20081;-87
2022/01/06 03:22:19;;;;;;;21.70;3.63;;;2.30;99.90;;;;;;5002291;28;20669;-86
2022/01/06 03:24:45;;;;;;;20.13;4.75;;;2.20;99.90;;;;;;5004415;28;20045;-87
2022/01/06 03:27:11;;;;;;;21.45;3.90;;;2.20;99.90;;;;;;5003742;28;20048;-86
2022/01/06 03:29:37;;;;;;;18.42;4.00;;;2.20;99.90;;;;;;4999127;28;20546;-87
2022/01/06 03:32:07;;;;;;;20.08;4.85;;;2.20;99.90;;;;;;5018029;28;20152;-86
2022/01/06 03:34:33;;;;;;;21.52;3.78;;;2.20;99.90;;;;;;5034457;28;20396;-86
2022/01/06 03:37:01;;;;;;;29.73;3.97;;;2.10;99.90;;;;;;5024609;28;20049;-86
2022/01/06 03:39:28;;;;;;;20.60;3.00;;;2.10;99.90;;;;;;5036370;28;20051;-87
2022/01/06 03:41:54;;;;;;;18.17;3.53;;;2.10;99.90;;;;;;5020755;28;20505;-86
2022/01/06 03:44:20;;;;;;;30.27;4.32;;;2.10;99.90;;;;;;5003484;28;20076;-87
2022/01/06 03:46:46;;;;;;;14.98;4.22;;;2.00;99.90;;;;;;5015899;28;20048;-85
2022/01/06 03:49:12;;;;;;;15.45;3.85;;;2.00;99.90;;;;;;5013337;28;20056;-86
2022/01/06 03:51:39;;;;;;;22.02;3.95;;;2.00;99.90;;;;;;4998332;28;20469;-86
2022/01/06 03:54:05;;;;;;;14.20;2.92;;;2.00;99.90;;;;;;5001492;28;20064;-86
2022/01/06 03:56:31;;;;;;;22.67;3.67;;;1.90;99.90;;;;;;5034682;28;20048;-86
2022/01/06 03:58:58;;;;;;;19.00;4.15;;;1.90;99.90;;;;;;5004092;28;20048;-85
2022/01/06 04:01:24;;;;;;;17.05;3.75;;;1.90;99.90;;;;;;5003050;28;20048;-86
2022/01/06 04:03:50;;;;;;;18.30;3.00;;;1.90;99.90;;;;;;5027958;28;20056;-86
2022/01/06 04:06:17;;;;;;;24.35;3.50;;;1.80;99.90;;;;;;5020042;28;20452;-86
2022/01/06 04:08:44;;;;;;;15.77;3.17;;;1.80;99.90;;;;;;5019900;28;20685;-86
2022/01/06 04:11:11;;;;;;;18.10;3.17;;;1.70;99.90;;;;;;5052277;28;20091;-86
2022/01/06 04:13:37;;;;;;;23.42;4.30;;;1.80;99.90;;;;;;4991033;28;20037;-86
2022/01/06 04:16:08;;;;;;;16.63;2.95;;;1.80;99.90;;;;;;5020434;28;20701;-86
2022/01/06 04:18:35;;;;;;;18.02;3.42;;;1.70;99.90;;;;;;5024073;28;20045;-87
2022/01/06 04:21:02;;;;;;;21.10;3.25;;;1.80;99.90;;;;;;5034973;28;20054;-87
2022/01/06 04:23:28;;;;;;;21.63;3.45;;;1.70;99.90;;;;;;5017699;28;20037;-85
2022/01/06 04:25:54;;;;;;;11.75;2.58;;;1.80;99.90;;;;;;4997942;28;20047;-86
2022/01/06 04:28:20;;;;;;;17.42;3.30;;;1.70;99.90;;;;;;5018163;28;20040;-87
2022/01/06 04:30:46;;;;;;;16.05;2.95;;;1.60;99.90;;;;;;5004932;28;20102;-86
2022/01/06 04:33:13;;;;;;;18.52;4.07;;;1.70;99.90;;;;;;5018204;28;20150;-86
2022/01/06 04:35:39;;;;;;;20.17;3.63;;;1.70;99.90;;;;;;5017643;28;20044;-87
2022/01/06 04:38:05;;;;;;;21.40;3.80;;;1.60;99.90;;;;;;4999128;28;20092;-87
2022/01/06 04:40:31;;;;;;;24.40;4.05;;;1.60;99.90;;;;;;5001383;28;20516;-87
2022/01/06 04:42:57;;;;;;;17.80;3.00;;;1.60;99.90;;;;;;5018631;28;20045;-87
2022/01/06 04:45:23;;;;;;;12.98;3.13;;;1.60;99.90;;;;;;5007799;28;20061;-87
2022/01/06 04:47:49;;;;;;;16.90;2.60;;;1.50;99.90;;;;;;5000597;28;20049;-86
2022/01/06 04:50:15;;;;;;;17.90;3.38;;;1.50;99.90;;;;;;5035332;28;20080;-87
2022/01/06 04:52:41;;;;;;;22.80;3.88;;;1.50;99.90;;;;;;5019953;28;20060;-86
2022/01/06 04:55:09;;;;;;;18.40;3.83;;;1.50;99.90;;;;;;5046797;28;20041;-86
2022/01/06 04:57:36;;;;;;;16.08;3.03;;;1.50;99.90;;;;;;5034491;28;20044;-86
2022/01/06 05:00:05;;;;;;;22.40;3.72;;;1.50;99.90;;;;;;5041654;28;20120;-86
2022/01/06 05:02:31;;;;;;;14.63;3.67;;;1.40;99.90;;;;;;5026826;28;20055;-86
2022/01/06 05:04:57;;;;;;;20.25;2.50;;;1.40;99.90;;;;;;4993799;28;20053;-86
2022/01/06 05:07:23;;;;;;;17.10;3.58;;;1.40;99.90;;;;;;5021775;28;20041;-86
2022/01/06 05:09:50;;;;;;;20.85;3.47;;;1.30;99.90;;;;;;5000741;28;20485;-86
2022/01/06 05:12:16;;;;;;;15.90;3.08;;;1.30;99.90;;;;;;4987009;28;20106;-87
2022/01/06 05:14:42;;;;;;;14.20;3.28;;;1.20;99.90;;;;;;5002680;28;20044;-86
2022/01/06 05:17:11;;;;;;;16.20;3.25;;;1.20;99.90;;;;;;5016877;28;20041;-87
2022/01/06 05:19:38;;;;;;;13.63;2.92;;;1.20;99.90;;;;;;4993834;28;20061;-87
2022/01/06 05:22:04;;;;;;;19.75;3.00;;;1.20;99.90;;;;;;4985026;28;20450;-87
2022/01/06 05:24:30;;;;;;;16.20;3.33;;;1.10;99.90;;;;;;4995168;28;20045;-87
2022/01/06 05:26:57;;;;;;;16.10;2.92;;;1.10;99.90;;;;;;5000961;28;20123;-87
2022/01/06 05:29:24;;;;;;;14.30;3.35;;;1.10;99.90;;;;;;5004677;28;20124;-87
2022/01/06 05:31:51;;;;;;;18.45;3.45;;;1.00;99.90;;;;;;4999263;28;20456;-87
2022/01/06 05:34:17;;;;;;;24.30;3.78;;;1.00;99.90;;;;;;5017619;28;20044;-87
2022/01/06 05:36:43;;;;;;;14.45;2.72;;;1.00;99.90;;;;;;5014156;28;20045;-86
2022/01/06 05:39:09;;;;;;;9.10;2.45;;;0.90;99.90;;;;;;5032495;28;20501;-87
2022/01/06 05:41:35;;;;;;;19.75;4.13;;;0.80;99.90;;;;;;5000679;28;20044;-87
2022/01/06 05:44:02;;;;;;;14.55;2.80;;;0.80;99.90;;;;;;4986969;28;20053;-88
2022/01/06 05:46:28;;;;;;;17.02;3.17;;;0.70;99.90;;;;;;5015945;28;20118;-87
2022/01/06 05:48:54;;;;;;;16.40;3.70;;;0.70;99.90;;;;;;4988998;28;20048;-86
2022/01/06 05:51:20;;;;;;;14.85;3.63;;;0.70;99.90;;;;;;4993364;28;20103;-86
2022/01/06 05:53:46;;;;;;;19.45;3.22;;;0.70;99.90;;;;;;4990759;28;20033;-87
2022/01/06 05:56:13;;;;;;;18.88;3.17;;;0.70;99.90;;;;;;5016822;28;20041;-87
2022/01/06 05:58:40;;;;;;;16.75;3.42;;;0.70;99.90;;;;;;5000944;28;20041;-87
2022/01/06 06:01:07;;;;;;;20.08;3.10;;;0.60;99.90;;;;;;4974076;28;20076;-88
2022/01/06 06:03:35;;;;;;;18.88;3.35;;;0.70;99.90;;;;;;5029712;28;20064;-87
2022/01/06 06:06:01;;;;;;;17.58;2.42;;;0.60;99.90;;;;;;5018114;28;20072;-86
2022/01/06 06:08:27;;;;;;;17.73;2.95;;;0.60;99.90;;;;;;4991669;28;20056;-87
2022/01/06 06:10:53;;;;;;;14.18;2.63;;;0.60;99.90;;;;;;5025341;28;20104;-85
2022/01/06 06:13:19;;;;;;;20.17;3.78;;;0.70;99.90;;;;;;5045750;28;20113;-87
2022/01/06 06:15:45;;;;;;;15.45;3.78;;;0.60;99.90;;;;;;5019119;28;20076;-87
2022/01/06 06:18:12;;;;;;;12.70;2.50;;;0.60;99.90;;;;;;4998381;28;20076;-87
2022/01/06 06:20:40;;;;;;;19.13;3.75;;;0.50;99.90;;;;;;5015125;28;20062;-87
2022/01/06 06:23:06;;;;;;;23.35;3.55;;;0.50;99.90;;;;;;5022232;28;20064;-87
2022/01/06 06:25:33;;;;;;;13.95;2.20;;;0.50;99.90;;;;;;4985610;28;20049;-87
2022/01/06 06:28:00;;;;;;;17.13;3.03;;;0.40;99.90;;;;;;5037879;28;20048;-87
2022/01/06 06:30:27;;;;;;;11.32;4.13;;;0.40;99.90;;;;;;4998501;28;20045;-87
2022/01/06 06:32:53;;;;;;;15.52;3.30;;;0.30;99.90;;;;;;4997896;28;20444;-86
2022/01/06 06:35:19;;;;;;;17.25;4.28;;;0.40;99.90;;;;;;5012606;28;20486;-87
2022/01/06 06:37:46;;;;;;;18.98;3.45;;;0.30;99.90;;;;;;5013611;28;20094;-87
2022/01/06 06:40:12;;;;;;;17.75;3.00;;;0.30;99.90;;;;;;5012815;28;20730;-86
2022/01/06 06:42:39;;;;;;;18.02;4.22;;;0.30;99.90;;;;;;5014117;28;20543;-87
2022/01/06 06:45:05;;;;;;;15.60;2.92;;;0.20;99.90;;;;;;5031294;28;20052;-87
2022/01/06 06:47:32;;;;;;;18.40;3.50;;;0.20;99.90;;;;;;4969086;28;20493;-86
2022/01/06 06:49:59;;;;;;;13.68;3.53;;;0.20;99.90;;;;;;5013363;28;20063;-85
2022/01/06 06:52:26;;;;;;;16.77;3.38;;;0.20;99.90;;;;;;5017611;28;20564;-86
2022/01/06 06:54:54;;;;;;;14.18;3.28;;;0.10;99.90;;;;;;5031536;28;20041;-85
2022/01/06 06:57:20;;;;;;;14.85;3.65;;;0.10;99.90;;;;;;5013854;28;20059;-85
2022/01/06 06:59:47;;;;;;;23.27;3.67;;;0.10;99.90;;;;;;5029441;28;20046;-85
2022/01/06 07:02:13;;;;;;;13.13;2.88;;;0.00;99.90;;;;;;5029399;28;20075;-85
2022/01/06 07:04:39;;;;;;;12.20;3.85;;;0.00;99.90;;;;;;5014126;28;20056;-86
2022/01/06 07:07:05;;;;;;;18.77;3.30;;;0.00;99.90;;;;;;5046940;28;20045;-86
2022/01/06 07:09:31;;;;;;;11.18;3.20;;;-0.10;99.90;;;;;;5030765;28;20083;-86
2022/01/06 07:11:57;;;;;;;19.42;3.58;;;0.00;99.90;;;;;;4997634;28;20107;-86
2022/01/06 07:14:23;;;;;;;17.73;3.22;;;0.00;99.90;;;;;;5012894;28;20045;-85
2022/01/06 07:16:49;;;;;;;12.70;3.05;;;-0.10;99.90;;;;;;4981319;28;20106;-85
2022/01/06 07:19:16;;;;;;;17.42;3.25;;;-0.10;99.90;;;;;;5011026;28;20118;-86
2022/01/06 07:21:42;;;;;;;13.80;2.40;;;-0.10;99.90;;;;;;4997429;28;20045;-86
2022/01/06 07:24:09;;;;;;;16.45;3.22;;;-0.20;99.90;;;;;;4998439;28;20055;-89
2022/01/06 07:26:35;;;;;;;15.80;4.50;;;-0.20;99.90;;;;;;5015687;28;20045;-88
2022/01/06 07:29:02;;;;;;;19.35;3.03;;;-0.20;99.90;;;;;;5037408;28;20048;-85
2022/01/06 07:31:28;;;;;;;17.42;3.63;;;-0.30;99.90;;;;;;5029933;28;20505;-88
2022/01/06 07:33:55;;;;;;;15.35;3.20;;;-0.30;99.90;;;;;;4999266;28;20068;-88
2022/01/06 07:36:21;;;;;;;15.48;3.03;;;-0.30;99.90;;;;;;5012150;28;20041;-85
2022/01/06 07:38:47;;;;;;;13.07;3.17;;;-0.30;99.90;;;;;;5011784;28;20056;-84
2022/01/06 07:41:13;;;;;;;22.15;3.97;;;-0.20;99.90;;;;;;5011236;28;20037;-83
2022/01/06 07:43:39;;;;;;;15.35;3.25;;;-0.20;99.90;;;;;;5012663;28;20041;-84
2022/01/06 07:46:07;;;;;;;22.92;3.40;;;-0.20;99.90;;;;;;5013997;28;20041;-84
2022/01/06 07:51:35;;;;;;;14.45;3.00;;;-0.20;99.90;;;;;;4977509;28;20042;-85
2022/01/06 07:54:01;;;;;;;19.90;3.80;;;-0.20;99.90;;;;;;5013837;28;20041;-84
2022/01/06 07:56:27;;;;;;;20.13;3.50;;;-0.10;99.90;;;;;;5016582;28;20562;-87
2022/01/06 07:58:55;;;;;;;21.30;3.75;;;-0.10;99.90;;;;;;5017654;28;20531;-87
2022/01/06 08:01:22;;;;;;;21.05;4.88;;;-0.10;99.90;;;;;;4997126;28;20046;-85
2022/01/06 08:03:48;;;;;;;18.15;3.28;;;-0.10;99.90;;;;;;5016141;28;20045;-84
2022/01/06 08:06:16;;;;;;;17.42;4.05;;;-0.10;99.90;;;;;;5015265;28;20033;-85
2022/01/06 08:08:43;;;;;;;19.15;3.75;;;0.00;99.90;;;;;;5002188;28;20041;-84
2022/01/06 08:11:10;;;;;;;21.92;4.18;;;0.00;99.90;;;;;;5013488;28;20489;-85
2022/01/06 08:13:36;;;;;;;21.65;3.85;;;0.10;99.90;;;;;;5035571;28;20131;-86
2022/01/06 08:16:03;;;;;;;14.80;3.55;;;0.00;99.90;;;;;;5014784;28;20064;-85
2022/01/06 08:18:29;;;;;;;23.83;4.03;;;0.10;99.90;;;;;;5014510;28;20553;-84
2022/01/06 08:20:57;;;;;;;12.55;3.00;;;0.20;99.90;;;;;;5017052;28;20056;-89
2022/01/06 08:23:23;;;;;;;22.05;3.60;;;0.30;99.90;;;;;;5017767;28;20045;-86
2022/01/06 08:25:50;;;;;;;24.35;4.55;;;0.40;99.90;;;;;;5018205;28;20041;-90
2022/01/06 08:28:17;;;;;;;18.92;3.65;;;0.60;99.90;;;;;;5001941;28;20041;-88
2022/01/06 08:30:43;;;;;;;17.98;3.38;;;0.60;99.90;;;;;;4984745;28;20485;-85
2022/01/06 08:33:10;;;;;;;24.13;4.38;;;0.70;99.90;;;;;;5000295;28;20048;-85
2022/01/06 08:35:36;;;;;;;21.45;3.70;;;0.80;99.90;;;;;;4982959;28;20033;-85
2022/01/06 08:38:04;;;;;;;15.82;3.10;;;1.00;99.90;;;;;;4984070;28;20033;-89
2022/01/06 08:40:31;;;;;;;18.33;3.20;;;1.20;99.90;;;;;;5019045;28;20097;-91
2022/01/06 08:42:57;;;;;;;24.65;4.13;;;1.30;99.90;;;;;;5019224;28;20045;-90
2022/01/06 08:45:23;;;;;;;20.15;4.13;;;1.40;99.90;;;;;;5021042;28;20041;-89
2022/01/06 08:47:52;;;;;;;24.02;4.13;;;1.60;99.90;;;;;;5036120;28;20520;-91
2022/01/06 08:50:23;;;;;;;20.55;4.13;;;1.70;99.90;;;;;;5004300;28;20098;-92
2022/01/06 08:52:50;;;;;;;11.93;3.25;;;2.00;99.90;;;;;;5001611;28;20076;-89
2022/01/06 08:55:17;;;;;;;14.98;3.30;;;2.20;99.90;;;;;;5000594;28;20525;-88
2022/01/06 08:57:43;;;;;;;18.15;3.30;;;2.30;99.90;;;;;;5017273;28;20093;-86
2022/01/06 09:00:10;;;;;;;14.95;3.17;;;2.30;99.90;;;;;;4989199;28;20116;-83
2022/01/06 09:02:37;;;;;;;13.20;3.40;;;2.60;99.90;;;;;;5029803;28;20508;-86
2022/01/06 09:05:10;;;;;;;15.40;2.97;;;3.00;99.90;;;;;;5000900;28;20060;-86
2022/01/06 09:07:36;;;;;;;17.42;3.30;;;3.20;99.90;;;;;;5015276;28;20048;-88
2022/01/06 09:10:04;;;;;;;14.85;4.22;;;3.40;99.90;;;;;;5034549;28;20396;-85
2022/01/06 09:12:31;;;;;;;17.02;4.38;;;3.40;99.90;;;;;;5039284;28;20054;-90
2022/01/06 09:14:57;;;;;;;12.50;3.13;;;3.60;99.90;;;;;;5016369;28;20116;-89
2022/01/06 09:17:23;;;;;;;15.77;3.35;;;3.70;99.90;;;;;;5019836;28;20578;-86
2022/01/06 09:19:50;;;;;;;20.98;3.78;;;3.90;99.90;;;;;;5016018;28;20050;-88
2022/01/06 09:22:16;;;;;;;14.63;3.22;;;3.70;99.90;;;;;;4988803;28;20045;-88
2022/01/06 09:24:43;;;;;;;15.15;3.88;;;3.90;99.90;;;;;;5027607;28;20107;-87
2022/01/06 09:27:09;;;;;;;19.73;3.55;;;4.00;99.90;;;;;;5003289;28;20041;-87
2022/01/06 09:29:35;;;;;;;15.18;3.15;;;4.00;99.90;;;;;;5017477;28;20041;-87
2022/01/06 09:32:04;;;;;;;19.40;3.55;;;4.10;99.90;;;;;;4996585;28;20083;-88
2022/01/06 09:34:30;;;;;;;24.15;3.58;;;3.90;99.90;;;;;;5016828;28;20077;-89
2022/01/06 09:36:56;;;;;;;19.95;3.67;;;3.80;99.90;;;;;;5020193;28;20036;-89
2022/01/06 09:39:23;;;;;;;22.17;3.83;;;3.70;99.90;;;;;;5019561;28;20045;-89
2022/01/06 09:41:49;;;;;;;15.75;3.38;;;3.80;99.90;;;;;;4998661;28;20045;-86
2022/01/06 09:44:15;;;;;;;19.13;3.97;;;4.00;99.90;;;;;;5035100;28;20059;-87
2022/01/06 09:46:43;;;;;;;18.88;4.35;;;4.10;99.90;;;;;;5012550;28;20045;-85
2022/01/06 09:49:09;;;;;;;16.10;4.25;;;4.20;99.90;;;;;;4982142;28;20434;-86
2022/01/06 09:51:35;;;;;;;16.83;4.18;;;4.30;99.90;;;;;;4998358;28;20053;-88
2022/01/06 09:54:02;;;;;;;21.38;4.13;;;4.30;99.90;;;;;;5012143;28;20131;-85
2022/01/06 09:56:29;;;;;;;18.55;3.78;;;4.30;99.90;;;;;;5014618;28;20136;-84
2022/01/06 09:58:56;;;;;;;20.00;3.42;;;4.40;99.90;;;;;;5017402;28;20494;-85
2022/01/06 10:01:22;;;;;;;24.40;4.95;;;4.30;99.90;;;;;;5017208;28;20120;-89
2022/01/06 10:03:49;;;;;;;17.30;4.15;;;4.40;99.90;;;;;;5004031;28;20041;-88
2022/01/06 10:06:26;;;;;;;20.85;5.20;;;4.60;99.90;;;;;;5034379;28;20063;-84
2022/01/06 10:09:04;;;;;;;20.00;4.10;;;4.80;99.90;;;;;;5042554;28;20052;-86
2022/01/06 10:11:33;;;;;;;20.10;4.70;;;4.80;99.90;;;;;;5001309;28;20134;-86
2022/01/06 10:14:19;;;;;;;21.05;4.07;;;4.90;99.90;;;;;;5002963;28;20199;-87
2022/01/06 10:16:49;;;;;;;15.18;3.80;;;4.90;99.90;;;;;;4998522;28;20037;-88
2022/01/06 10:19:16;;;;;;;21.40;4.38;;;5.00;99.90;;;;;;4998384;28;20052;-85
2022/01/06 10:21:48;;;;;;;24.15;5.10;;;5.00;99.90;;;;;;5001126;28;20132;-94
2022/01/06 10:24:15;;;;;;;19.35;3.78;;;5.10;99.90;;;;;;5015198;28;20550;-87
2022/01/06 10:26:58;;;;;;;22.55;3.85;;;5.40;99.90;;;;;;5000442;28;20493;-88
2022/01/06 10:29:27;;;;;;;19.75;4.88;;;5.40;99.90;;;;;;5010704;28;20048;-86
2022/01/06 10:32:08;;;;;;;18.23;4.00;;;5.80;99.90;;;;;;5027818;28;20076;-86
2022/01/06 10:34:36;;;;;;;18.73;4.43;;;6.20;99.90;;;;;;5032011;28;20037;-87
2022/01/06 10:37:15;;;;;;;17.65;4.47;;;6.40;99.90;;;;;;5017282;28;20044;-88
2022/01/06 10:39:42;;;;;;;13.93;3.05;;;6.50;99.90;;;;;;5048711;28;20582;-86
2022/01/06 10:42:09;;;;;;;16.83;3.42;;;6.40;99.90;;;;;;5016015;28;20048;-89
2022/01/06 10:44:49;;;;;;;19.50;4.43;;;6.30;99.90;;;;;;4999056;28;20053;-88
2022/01/06 10:47:35;;;;;;;17.20;3.75;;;6.30;99.90;;;;;;5014296;28;20044;-87
2022/01/06 10:50:17;;;;;;;13.48;3.47;;;6.30;99.90;;;;;;5025837;28;20139;-87
2022/01/06 10:52:47;;;;;;;13.85;3.65;;;6.60;99.90;;;;;;5012556;28;20032;-87
2022/01/06 10:55:21;;;;;;;15.52;3.75;;;6.50;99.90;;;;;;5012555;28;20044;-87
2022/01/06 10:57:55;;;;;;;16.90;3.58;;;6.70;99.90;;;;;;5041296;28;20484;-88
2022/01/06 11:00:25;;;;;;;20.40;3.50;;;6.80;99.90;;;;;;5014153;28;20123;-85
2022/01/06 11:02:52;;;;;;;16.10;4.15;;;7.10;99.90;;;;;;5011632;28;20461;-88
2022/01/06 11:05:18;;;;;;;14.35;3.92;;;7.80;99.90;;;;;;5009730;28;20152;-87
2022/01/06 11:07:44;;;;;;;13.30;3.85;;;8.80;99.90;;;;;;4994434;28;20067;-84
2022/01/06 11:10:16;;;;;;;17.23;3.78;;;9.40;99.90;;;;;;4994591;28;20044;-85
2022/01/06 11:12:42;;;;;;;;;;;10.00;99.90;;;;;;4975246;28;20060;-84
2022/01/06 11:15:10;;;;;;;13.93;3.35;;;9.60;99.90;;;;;;5048144;28;19947;-84
2022/01/06 11:17:37;;;;;;;18.30;3.90;;;9.90;99.90;;;;;;4992992;28;20040;-83
2022/01/06 11:20:04;;;;;;;17.30;3.25;;;9.80;99.90;;;;;;4994681;28;20053;-83
2022/01/06 11:22:30;;;;;;;21.27;4.13;;;9.90;99.90;;;;;;5010360;28;20051;-83
2022/01/06 11:25:03;;;;;;;14.80;3.85;;;9.30;99.90;;;;;;5010618;28;20563;-84
2022/01/06 11:27:34;;;;;;;14.77;3.83;;;9.40;99.90;;;;;;5014156;28;20444;-82
2022/01/06 11:30:12;;;;;;;12.57;4.03;;;9.20;99.90;;;;;;5064732;28;20048;-84
2022/01/06 11:32:41;;;;;;;15.98;3.95;;;9.50;99.90;;;;;;5017228;28;20052;-87
2022/01/06 11:35:11;;;;;;;20.45;4.30;;;9.30;99.90;;;;;;5004215;28;20154;-87
2022/01/06 11:37:41;;;;;;;16.45;4.03;;;9.20;99.90;;;;;;5016037;28;20033;-84
2022/01/06 11:40:09;;;;;;;15.88;4.13;;;8.80;99.90;;;;;;5032159;28;20044;-87
2022/01/06 11:42:35;;;;;;;12.48;3.35;;;8.80;99.90;;;;;;5013385;28;21518;-83
2022/01/06 11:45:05;;;;;;;18.13;4.03;;;8.70;99.90;;;;;;5027375;28;20175;-86
2022/01/06 11:47:36;;;;;;;15.50;3.72;;;8.70;99.90;;;;;;5025495;28;20045;-85
2022/01/06 11:50:11;;;;;;;21.02;4.32;;;8.60;99.90;;;;;;5030745;28;20497;-85
2022/01/06 11:52:48;;;;;;;12.38;2.97;;;9.00;99.90;;;;;;5026293;28;20076;-85
2022/01/06 11:55:14;;;;;;;18.95;3.65;;;9.40;99.90;;;;;;5011229;28;20064;-85
2022/01/06 11:57:41;;;;;;;14.85;3.90;;;10.00;99.90;;;;;;5027691;28;20098;-86
2022/01/06 12:00:19;;;;;;;14.65;3.42;;;9.80;99.90;;;;;;5015815;28;20565;-85
2022/01/06 12:03:06;;;;;;;20.35;3.33;;;10.00;99.90;;;;;;4998162;28;20075;-85
2022/01/06 12:05:52;;;;;;;17.90;3.83;;;10.30;99.90;;;;;;5046025;28;20055;-86
2022/01/06 12:08:21;;;;;;;15.18;3.33;;;10.60;99.90;;;;;;5032703;28;20770;-86
2022/01/06 12:10:51;;;;;;;15.35;3.75;;;10.70;99.90;;;;;;5042140;28;20501;-85
2022/01/06 12:13:19;;;;;;;15.57;3.97;;;10.90;99.90;;;;;;5014359;28;20425;-86
2022/01/06 12:15:56;;;;;;;15.18;4.00;;;11.20;99.90;;;;;;5031016;28;20049;-86
2022/01/06 12:18:28;;;;;;;15.80;3.20;;;11.30;99.90;;;;;;4994988;28;20041;-86
2022/01/06 12:20:57;;;;;;;13.25;3.67;;;11.30;99.90;;;;;;5027715;28;20053;-86
2022/01/06 12:23:24;;;;;;;17.30;3.95;;;11.40;99.90;;;;;;5014077;28;20051;-87
2022/01/06 12:26:04;;;;;;;15.75;3.55;;;11.20;99.90;;;;;;5028597;28;20599;-82
2022/01/06 12:28:35;;;;;;;9.60;2.67;;;11.70;99.90;;;;;;5041055;28;20082;-84
2022/01/06 12:31:04;;;;;;;17.20;4.05;;;12.00;99.90;;;;;;5030023;28;20087;-83
2022/01/06 12:33:32;;;;;;;14.10;3.67;;;11.50;99.90;;;;;;4997791;28;20475;-82
2022/01/06 12:36:01;;;;;;;16.67;3.75;;;11.40;99.90;;;;;;5000216;28;20487;-85
2022/01/06 12:38:31;;;;;;;14.93;3.53;;;11.30;99.90;;;;;;5012394;28;20059;-85
2022/01/06 12:41:01;;;;;;;14.45;3.83;;;11.50;99.90;;;;;;5028019;28;20037;-83
2022/01/06 12:43:29;;;;;;;17.20;4.82;;;11.40;99.90;;;;;;5015553;28;20060;-84
2022/01/06 12:46:16;;;;;;;14.75;4.20;;;11.60;99.90;;;;;;5027084;28;20128;-83
2022/01/06 12:48:48;;;;;;;18.80;4.40;;;11.30;99.90;;;;;;5025534;28;20041;-86
2022/01/06 12:51:20;;;;;;;16.90;4.38;;;10.80;99.90;;;;;;4999725;28;20052;-84
2022/01/06 12:53:49;;;;;;;14.38;3.30;;;10.40;99.90;;;;;;5015297;28;20056;-84
2022/01/06 12:56:27;;;;;;;13.63;3.03;;;10.30;99.90;;;;;;5013552;28;20052;-85
2022/01/06 12:58:55;;;;;;;15.63;4.38;;;10.20;99.90;;;;;;5044170;28;20051;-85
2022/01/06 13:01:21;;;;;;;16.45;3.97;;;10.30;99.90;;;;;;5031317;28;20106;-85
2022/01/06 13:03:54;;;;;;;13.80;3.80;;;10.60;99.90;;;;;;5011919;28;20041;-86